Time;durP1;ratioP1;P1;durP2;ratioP2;P2;SDS_P1;SDS_P2;PMS_P1;PMS_P2;Temp;Humidity;BMP_temperature;BMP_pressure;BME280_temperature;BME280_humidity;BME280_pressure;Samples;Min_cycle;Max_cycle;Signal;HPM_P1;HPM_P2
2022/09/30 00:00:51;;;;;;;5.80;1.88;;;10.70;99.90;;;;;;4247762;28;20158;-83
2022/09/30 00:02:52;;;;;;;2.78;1.80;;;10.60;99.90;;;;;;4247754;28;20510;-83
2022/09/30 00:04:52;;;;;;;3.55;1.80;;;10.60;99.90;;;;;;4229167;28;20035;-83
2022/09/30 00:06:54;;;;;;;4.68;1.88;;;10.60;99.90;;;;;;4228833;28;20518;-83
2022/09/30 00:08:56;;;;;;;2.15;1.83;;;10.60;99.90;;;;;;4247197;28;20035;-83
2022/09/30 00:11:03;;;;;;;4.75;1.98;;;10.50;99.90;;;;;;4247599;28;20039;-83
2022/09/30 00:13:03;;;;;;;2.92;2.08;;;10.50;99.90;;;;;;4247206;28;20051;-83
2022/09/30 00:15:05;;;;;;;4.78;2.10;;;10.50;99.90;;;;;;4228920;28;20043;-82
2022/09/30 00:17:07;;;;;;;7.07;2.22;;;10.40;99.90;;;;;;4229019;28;20047;-83
2022/09/30 00:19:08;;;;;;;9.57;2.30;;;10.40;99.90;;;;;;4247336;28;20514;-83
2022/09/30 00:21:10;;;;;;;6.68;3.60;;;10.40;99.90;;;;;;4228936;27;20066;-82
2022/09/30 00:23:11;;;;;;;6.68;2.40;;;10.30;99.90;;;;;;4232354;28;20087;-83
2022/09/30 00:25:12;;;;;;;3.15;2.05;;;10.30;99.90;;;;;;4250400;27;20506;-83
2022/09/30 00:27:17;;;;;;;5.18;2.33;;;10.30;99.90;;;;;;4249774;27;20047;-82
2022/09/30 00:29:17;;;;;;;3.65;2.00;;;10.20;99.90;;;;;;4250435;27;20055;-82
2022/09/30 00:31:19;;;;;;;2.88;2.17;;;10.10;99.90;;;;;;4257729;27;20434;-82
2022/09/30 00:33:20;;;;;;;2.97;2.25;;;10.10;99.90;;;;;;4267308;27;20082;-82
2022/09/30 00:35:21;;;;;;;3.85;1.77;;;10.10;99.90;;;;;;4267439;27;20043;-82
2022/09/30 00:37:21;;;;;;;4.35;2.17;;;10.10;99.90;;;;;;4266547;27;20587;-82
2022/09/30 00:39:26;;;;;;;3.22;1.80;;;10.10;99.90;;;;;;4266535;27;20367;-82
2022/09/30 00:41:27;;;;;;;5.30;1.95;;;10.00;99.90;;;;;;4247865;27;20086;-82
2022/09/30 00:43:52;;;;;;;3.55;2.00;;;10.00;99.90;;;;;;4266549;27;20046;-82
2022/09/30 00:45:58;;;;;;;5.80;2.80;;;10.00;99.90;;;;;;4247833;27;20082;-82
2022/09/30 00:48:08;;;;;;;3.35;2.22;;;10.00;99.90;;;;;;4266222;27;20486;-82
2022/09/30 00:50:23;;;;;;;3.17;2.00;;;10.00;99.90;;;;;;4266173;27;20059;-82
2022/09/30 00:52:25;;;;;;;3.72;1.85;;;10.00;99.90;;;;;;4266936;27;20050;-82
2022/09/30 00:54:30;;;;;;;5.53;2.03;;;10.00;99.90;;;;;;4240661;27;20039;-82
2022/09/30 00:56:38;;;;;;;3.20;2.20;;;10.00;99.90;;;;;;4246411;27;20041;-82
2022/09/30 00:59:12;;;;;;;4.65;2.17;;;10.00;99.90;;;;;;4267160;27;20455;-82
2022/09/30 01:01:13;;;;;;;4.15;1.85;;;10.00;99.90;;;;;;4266857;27;20064;-82
2022/09/30 01:03:16;;;;;;;4.50;1.95;;;10.00;99.90;;;;;;4248807;27;20078;-82
2022/09/30 01:05:17;;;;;;;3.58;1.90;;;10.00;99.90;;;;;;4248629;27;20111;-82
2022/09/30 01:07:19;;;;;;;3.97;2.38;;;10.00;99.90;;;;;;4266995;27;20488;-82
2022/09/30 01:09:20;;;;;;;2.55;1.90;;;10.00;99.90;;;;;;4248341;27;20043;-82
2022/09/30 01:11:21;;;;;;;3.22;2.13;;;10.00;99.90;;;;;;4267303;27;20051;-83
2022/09/30 01:13:26;;;;;;;4.22;2.22;;;10.00;99.90;;;;;;4254352;27;20114;-82
2022/09/30 01:16:12;;;;;;;4.68;2.00;;;9.90;99.90;;;;;;4257349;27;20039;-82
2022/09/30 01:18:20;;;;;;;3.85;1.90;;;9.90;99.90;;;;;;4267375;27;20399;-82
2022/09/30 01:20:40;;;;;;;3.78;2.10;;;9.90;99.90;;;;;;4252860;27;20136;-82
2022/09/30 01:22:58;;;;;;;4.10;2.08;;;9.90;99.90;;;;;;4232539;28;20050;-82
2022/09/30 01:25:37;;;;;;;4.80;2.17;;;9.90;99.90;;;;;;4250417;27;20091;-82
2022/09/30 01:28:01;;;;;;;8.75;2.45;;;9.90;99.90;;;;;;4249993;27;20054;-82
2022/09/30 01:30:05;;;;;;;6.55;2.20;;;9.90;99.90;;;;;;4232033;28;20059;-83
2022/09/30 01:32:27;;;;;;;7.88;2.53;;;9.80;99.90;;;;;;4260620;27;20505;-83
2022/09/30 01:34:37;;;;;;;3.72;2.15;;;9.80;99.90;;;;;;4267317;27;20047;-83
2022/09/30 01:36:43;;;;;;;4.75;2.60;;;9.80;99.90;;;;;;4267110;27;20125;-83
2022/09/30 01:38:49;;;;;;;6.43;2.17;;;9.80;99.90;;;;;;4267199;27;20519;-83
2022/09/30 01:41:25;;;;;;;3.33;2.25;;;9.80;99.90;;;;;;4267052;27;20035;-83
2022/09/30 01:43:54;;;;;;;5.63;2.33;;;9.90;99.90;;;;;;4266909;27;20055;-83
2022/09/30 01:46:12;;;;;;;4.32;1.95;;;9.80;99.90;;;;;;4248475;27;20407;-83
2022/09/30 01:48:18;;;;;;;3.30;1.98;;;9.80;99.90;;;;;;4231226;28;20438;-83
2022/09/30 01:50:33;;;;;;;4.13;1.65;;;9.70;99.90;;;;;;4257146;27;20407;-83
2022/09/30 01:52:51;;;;;;;5.50;1.80;;;9.70;99.90;;;;;;4231922;28;20120;-83
2022/09/30 01:55:05;;;;;;;4.97;2.42;;;9.60;99.90;;;;;;4231546;28;20414;-83
2022/09/30 01:57:22;;;;;;;4.88;1.85;;;9.60;99.90;;;;;;4250273;27;20376;-83
2022/09/30 01:59:32;;;;;;;3.95;1.88;;;9.60;99.90;;;;;;4230945;28;20048;-84
2022/09/30 02:01:49;;;;;;;3.85;2.10;;;9.50;99.90;;;;;;4231564;28;20079;-84
2022/09/30 02:04:00;;;;;;;4.00;1.90;;;9.50;99.90;;;;;;4231749;28;20543;-83
2022/09/30 02:06:12;;;;;;;3.40;2.17;;;9.40;99.90;;;;;;4231318;28;20062;-83
2022/09/30 02:08:26;;;;;;;6.70;3.70;;;9.30;99.90;;;;;;4231535;28;20047;-83
2022/09/30 02:10:33;;;;;;;4.93;3.08;;;9.30;99.90;;;;;;4231601;28;20054;-83
2022/09/30 02:12:40;;;;;;;9.40;3.80;;;9.30;99.90;;;;;;4249647;27;20047;-83
2022/09/30 02:14:46;;;;;;;8.13;4.18;;;9.20;99.90;;;;;;4249523;27;20487;-83
2022/09/30 02:17:15;;;;;;;7.47;4.00;;;9.20;99.90;;;;;;4248524;27;20114;-84
2022/09/30 02:19:27;;;;;;;6.00;4.13;;;9.20;99.90;;;;;;4244100;27;20052;-83
2022/09/30 02:21:34;;;;;;;7.97;4.20;;;9.10;99.90;;;;;;4248820;27;20050;-83
2022/09/30 02:23:41;;;;;;;6.68;3.85;;;9.10;99.90;;;;;;4230098;28;20476;-83
2022/09/30 02:25:47;;;;;;;8.85;3.47;;;9.10;99.90;;;;;;4248850;27;20108;-83
2022/09/30 02:28:00;;;;;;;9.20;3.67;;;9.10;99.90;;;;;;4248751;27;20186;-83
2022/09/30 02:30:03;;;;;;;6.55;3.75;;;9.10;99.90;;;;;;4243881;27;20048;-83
2022/09/30 02:32:12;;;;;;;9.73;3.60;;;9.10;99.90;;;;;;4236050;27;20113;-83
2022/09/30 02:34:23;;;;;;;6.82;3.80;;;9.00;99.90;;;;;;4266407;27;20043;-83
2022/09/30 02:36:30;;;;;;;5.82;3.38;;;9.00;99.90;;;;;;4223275;28;20051;-83
2022/09/30 02:38:41;;;;;;;5.13;2.92;;;9.00;99.90;;;;;;4249540;27;20046;-83
2022/09/30 02:40:52;;;;;;;5.07;3.47;;;9.00;99.90;;;;;;4249385;27;20123;-83
2022/09/30 02:42:53;;;;;;;4.80;3.00;;;9.00;99.90;;;;;;4248981;27;20047;-83
2022/09/30 02:45:01;;;;;;;5.57;3.33;;;9.00;99.90;;;;;;4230094;28;20596;-83
2022/09/30 02:47:12;;;;;;;4.72;2.70;;;9.00;99.90;;;;;;4249185;27;20047;-83
2022/09/30 02:49:39;;;;;;;5.80;3.35;;;8.90;99.90;;;;;;4262449;27;20164;-83
2022/09/30 02:51:52;;;;;;;7.57;3.45;;;8.90;99.90;;;;;;4247595;27;20099;-83
2022/09/30 02:54:18;;;;;;;7.50;3.97;;;8.90;99.90;;;;;;4265542;27;20038;-83
2022/09/30 02:57:03;;;;;;;7.38;3.42;;;8.90;99.90;;;;;;4254306;27;20058;-83
2022/09/30 02:59:04;;;;;;;6.63;3.70;;;8.90;99.90;;;;;;4247454;27;20062;-83
2022/09/30 03:01:08;;;;;;;6.70;3.25;;;8.90;99.90;;;;;;4265879;27;20493;-83
2022/09/30 03:03:21;;;;;;;5.60;3.95;;;8.90;99.90;;;;;;4266344;27;20117;-83
2022/09/30 03:05:22;;;;;;;6.40;3.70;;;8.90;99.90;;;;;;4266491;27;20510;-82
2022/09/30 03:07:23;;;;;;;5.68;4.20;;;8.90;99.90;;;;;;4231448;28;20043;-83
2022/09/30 03:09:27;;;;;;;7.95;4.30;;;8.90;99.90;;;;;;4247918;28;20039;-83
2022/09/30 03:11:29;;;;;;;6.53;4.53;;;8.80;99.90;;;;;;4266311;27;20070;-83
2022/09/30 03:14:00;;;;;;;8.15;3.78;;;8.80;99.90;;;;;;4247336;28;20051;-83
2022/09/30 03:16:04;;;;;;;7.43;4.13;;;8.80;99.90;;;;;;4266177;27;20039;-83
2022/09/30 03:18:32;;;;;;;5.82;3.78;;;8.80;99.90;;;;;;4266016;27;20045;-83
2022/09/30 03:20:44;;;;;;;6.80;3.78;;;8.70;99.90;;;;;;4265444;27;20121;-83
2022/09/30 03:23:06;;;;;;;7.32;3.17;;;8.70;99.90;;;;;;4264776;27;20053;-83
2022/09/30 03:25:32;;;;;;;7.60;3.85;;;8.70;99.90;;;;;;4258125;27;20047;-83
2022/09/30 03:28:10;;;;;;;7.68;3.80;;;8.70;99.90;;;;;;4248777;28;20399;-83
2022/09/30 03:30:16;;;;;;;5.70;3.60;;;8.70;99.90;;;;;;4248940;28;20095;-83
2022/09/30 03:32:37;;;;;;;8.82;3.80;;;8.60;99.90;;;;;;4248547;28;20055;-83
2022/09/30 03:35:03;;;;;;;5.28;3.60;;;8.60;99.90;;;;;;4230594;28;20127;-83
2022/09/30 03:37:18;;;;;;;7.97;4.18;;;8.60;99.90;;;;;;4213568;28;20044;-83
2022/09/30 03:39:29;;;;;;;9.15;3.30;;;8.60;99.90;;;;;;4248855;28;20043;-83
2022/09/30 03:41:55;;;;;;;8.10;3.45;;;8.50;99.90;;;;;;4208501;28;20047;-84
2022/09/30 03:44:21;;;;;;;5.55;3.28;;;8.50;99.90;;;;;;4212900;28;20055;-83
2022/09/30 03:46:33;;;;;;;5.03;3.42;;;8.50;99.90;;;;;;4212874;28;20113;-83
2022/09/30 03:48:37;;;;;;;5.53;2.83;;;8.40;99.90;;;;;;4229991;28;20081;-83
2022/09/30 03:50:39;;;;;;;7.22;3.28;;;8.40;99.90;;;;;;4211210;28;20138;-83
2022/09/30 03:52:41;;;;;;;4.80;3.00;;;8.40;99.90;;;;;;4211933;28;20145;-83
2022/09/30 03:54:57;;;;;;;5.93;3.08;;;8.40;99.90;;;;;;4212129;28;20107;-83
2022/09/30 03:57:02;;;;;;;5.40;3.42;;;8.40;99.90;;;;;;4216101;28;20124;-83
2022/09/30 03:59:03;;;;;;;7.25;3.35;;;8.30;99.90;;;;;;4216274;28;20036;-83
2022/09/30 04:01:04;;;;;;;7.93;3.03;;;8.30;99.90;;;;;;4216513;28;20086;-83
2022/09/30 04:03:04;;;;;;;6.07;2.92;;;8.30;99.90;;;;;;4222672;27;20052;-83
2022/09/30 04:05:06;;;;;;;5.53;2.78;;;8.20;99.90;;;;;;4246701;27;20040;-83
2022/09/30 04:07:08;;;;;;;4.25;2.78;;;8.20;99.90;;;;;;4251248;27;20118;-83
2022/09/30 04:09:09;;;;;;;5.15;2.95;;;8.20;99.90;;;;;;4236443;27;20044;-83
2022/09/30 04:11:11;;;;;;;4.68;3.00;;;8.20;99.90;;;;;;4235017;28;20540;-83
2022/09/30 04:13:12;;;;;;;6.57;3.03;;;8.20;99.90;;;;;;4234580;28;20093;-84
2022/09/30 04:15:12;;;;;;;4.63;2.88;;;8.20;99.90;;;;;;4234953;28;20039;-83
2022/09/30 04:17:13;;;;;;;6.82;3.45;;;8.30;99.90;;;;;;4232949;28;20152;-84
2022/09/30 04:19:14;;;;;;;4.18;2.70;;;8.20;99.90;;;;;;4234392;28;20043;-83
2022/09/30 04:21:15;;;;;;;3.40;2.60;;;8.10;99.90;;;;;;4248160;27;20127;-83
2022/09/30 04:23:16;;;;;;;6.40;2.63;;;8.10;99.90;;;;;;4251580;27;20073;-83
2022/09/30 04:25:17;;;;;;;5.85;2.63;;;8.10;99.90;;;;;;4251427;27;20051;-83
2022/09/30 04:27:18;;;;;;;4.32;2.90;;;8.10;99.90;;;;;;4251689;27;20031;-84
2022/09/30 04:29:18;;;;;;;6.95;3.22;;;8.10;99.90;;;;;;4252091;27;20114;-84
2022/09/30 04:31:20;;;;;;;4.75;2.80;;;8.00;99.90;;;;;;4251272;27;20091;-83
2022/09/30 04:33:20;;;;;;;7.40;2.60;;;8.00;99.90;;;;;;4251795;27;20100;-84
2022/09/30 04:35:21;;;;;;;5.47;2.80;;;8.00;99.90;;;;;;4232204;27;20040;-84
2022/09/30 04:37:23;;;;;;;5.88;3.13;;;8.00;99.90;;;;;;4232986;28;20044;-84
2022/09/30 04:39:24;;;;;;;4.72;2.45;;;8.00;99.90;;;;;;4234405;28;20089;-84
2022/09/30 04:41:25;;;;;;;5.38;2.90;;;8.00;99.90;;;;;;4233884;28;20487;-84
2022/09/30 04:43:26;;;;;;;4.50;2.80;;;7.90;99.90;;;;;;4233111;28;20551;-83
2022/09/30 04:45:28;;;;;;;3.67;2.80;;;7.90;99.90;;;;;;4232845;28;20062;-83
2022/09/30 04:47:30;;;;;;;3.92;2.72;;;7.90;99.90;;;;;;4232815;28;20538;-83
2022/09/30 04:49:31;;;;;;;5.50;3.00;;;7.80;99.90;;;;;;4233644;28;20094;-83
2022/09/30 04:51:32;;;;;;;4.28;2.88;;;7.80;99.90;;;;;;4249169;27;20054;-83
2022/09/30 04:53:33;;;;;;;5.60;3.35;;;7.80;99.90;;;;;;4238090;27;20395;-84
2022/09/30 04:55:34;;;;;;;5.45;2.75;;;7.80;99.90;;;;;;4234113;28;20123;-84
2022/09/30 04:57:35;;;;;;;3.97;2.97;;;8.00;99.90;;;;;;4233436;28;20044;-84
2022/09/30 04:59:35;;;;;;;8.30;3.00;;;7.80;99.90;;;;;;4215418;28;20764;-83
2022/09/30 05:01:38;;;;;;;3.75;2.80;;;7.80;99.90;;;;;;4233327;28;20047;-83
2022/09/30 05:03:39;;;;;;;3.83;3.00;;;7.80;99.90;;;;;;4233774;28;20035;-83
2022/09/30 05:05:43;;;;;;;4.88;3.13;;;7.80;99.90;;;;;;4215876;28;20056;-84
2022/09/30 05:07:44;;;;;;;4.57;2.97;;;7.80;99.90;;;;;;4215213;28;20048;-83
2022/09/30 05:09:45;;;;;;;5.32;3.58;;;7.80;99.90;;;;;;4233647;28;20051;-83
2022/09/30 05:11:45;;;;;;;4.57;3.00;;;7.80;99.90;;;;;;4215507;28;20127;-84
2022/09/30 05:13:47;;;;;;;5.18;2.67;;;7.70;99.90;;;;;;4215468;28;20052;-83
2022/09/30 05:15:49;;;;;;;4.05;2.83;;;7.80;99.90;;;;;;4215190;28;20044;-83
2022/09/30 05:17:50;;;;;;;3.90;2.95;;;7.70;99.90;;;;;;4215427;28;20048;-83
2022/09/30 05:19:51;;;;;;;5.38;2.80;;;7.70;99.90;;;;;;4215274;28;20047;-83
2022/09/30 05:21:52;;;;;;;6.60;3.15;;;7.70;99.90;;;;;;4233460;28;20052;-83
2022/09/30 05:23:53;;;;;;;4.53;3.00;;;7.70;99.90;;;;;;4233215;28;20048;-84
2022/09/30 05:25:53;;;;;;;5.80;3.28;;;7.70;99.90;;;;;;4233247;28;20121;-83
2022/09/30 05:27:55;;;;;;;3.85;2.40;;;7.70;99.90;;;;;;4232548;28;20043;-83
2022/09/30 05:29:56;;;;;;;5.75;2.97;;;7.80;99.90;;;;;;4214186;28;20516;-83
2022/09/30 05:31:57;;;;;;;7.65;2.63;;;7.70;99.90;;;;;;4213991;28;20526;-83
2022/09/30 05:33:58;;;;;;;5.40;3.42;;;7.70;99.90;;;;;;4214587;28;20044;-83
2022/09/30 05:36:05;;;;;;;4.60;2.78;;;7.70;99.90;;;;;;4232701;28;20039;-83
2022/09/30 05:38:07;;;;;;;3.72;2.78;;;7.60;99.90;;;;;;4232140;28;20135;-83
2022/09/30 05:40:08;;;;;;;3.65;2.60;;;7.70;99.90;;;;;;4214618;28;20051;-83
2022/09/30 05:42:09;;;;;;;4.72;3.22;;;7.60;99.90;;;;;;4197534;28;20052;-83
2022/09/30 05:44:09;;;;;;;3.67;2.58;;;7.80;99.90;;;;;;4232658;28;20392;-83
2022/09/30 05:46:10;;;;;;;4.57;2.90;;;7.60;99.90;;;;;;4233253;28;20048;-83
2022/09/30 05:48:12;;;;;;;4.13;2.80;;;7.60;99.90;;;;;;4232584;28;20047;-83
2022/09/30 05:50:12;;;;;;;5.38;2.90;;;7.50;99.90;;;;;;4197457;28;20443;-84
2022/09/30 05:52:14;;;;;;;5.60;2.88;;;7.60;99.90;;;;;;4214521;28;20159;-83
2022/09/30 05:54:14;;;;;;;5.20;3.53;;;7.60;99.90;;;;;;4213806;28;20047;-84
2022/09/30 05:56:15;;;;;;;3.45;2.65;;;7.50;99.90;;;;;;4232151;28;20032;-84
2022/09/30 05:58:16;;;;;;;6.05;3.13;;;7.60;99.90;;;;;;4197548;28;20055;-84
2022/09/30 06:00:19;;;;;;;4.50;2.90;;;7.50;99.90;;;;;;4214380;28;20152;-82
2022/09/30 06:02:19;;;;;;;4.45;2.70;;;7.50;99.90;;;;;;4242705;27;20841;-82
2022/09/30 06:04:21;;;;;;;4.03;2.50;;;7.50;99.90;;;;;;4235923;27;20096;-81
2022/09/30 06:06:23;;;;;;;4.00;2.63;;;7.50;99.90;;;;;;4233117;28;20483;-81
2022/09/30 06:08:26;;;;;;;4.18;2.47;;;7.50;99.90;;;;;;4231684;27;20098;-81
2022/09/30 06:10:27;;;;;;;2.47;1.77;;;7.60;99.90;;;;;;4249218;27;20463;-80
2022/09/30 06:12:27;;;;;;;3.17;1.60;;;7.50;99.90;;;;;;4213806;28;20055;-80
2022/09/30 06:14:28;;;;;;;2.67;1.85;;;7.60;99.90;;;;;;4244456;27;20168;-80
2022/09/30 06:16:30;;;;;;;3.08;2.13;;;7.60;99.90;;;;;;4246864;27;20078;-80
2022/09/30 06:18:31;;;;;;;2.47;1.90;;;7.50;99.90;;;;;;4229468;28;20133;-81
2022/09/30 06:20:32;;;;;;;5.63;2.60;;;7.50;99.90;;;;;;4247575;27;20051;-80
2022/09/30 06:22:34;;;;;;;5.88;3.10;;;7.50;99.90;;;;;;4212930;28;20052;-81
2022/09/30 06:24:36;;;;;;;4.00;2.78;;;7.60;99.90;;;;;;4229236;28;20123;-80
2022/09/30 06:26:36;;;;;;;5.10;3.05;;;7.60;99.90;;;;;;4229732;28;20047;-81
2022/09/30 06:28:37;;;;;;;7.78;3.88;;;7.70;99.90;;;;;;4248253;27;20035;-81
2022/09/30 06:30:38;;;;;;;6.15;3.65;;;7.80;99.90;;;;;;4245112;27;20469;-81
2022/09/30 06:32:38;;;;;;;6.80;3.72;;;7.80;99.90;;;;;;4219475;28;20048;-81
2022/09/30 06:34:39;;;;;;;7.68;3.85;;;7.90;99.90;;;;;;4248060;27;20510;-81
2022/09/30 06:36:40;;;;;;;6.40;3.80;;;7.90;99.90;;;;;;4212752;28;20051;-81
2022/09/30 06:38:40;;;;;;;6.32;4.05;;;8.30;99.90;;;;;;4247921;27;20043;-81
2022/09/30 06:40:42;;;;;;;6.95;3.75;;;7.60;99.90;;;;;;4229827;28;20056;-80
2022/09/30 06:42:43;;;;;;;7.25;4.07;;;8.10;99.90;;;;;;4243581;27;20049;-82
2022/09/30 06:44:45;;;;;;;7.85;4.10;;;8.20;99.90;;;;;;4235926;27;20071;-82
2022/09/30 06:46:45;;;;;;;7.80;4.28;;;8.20;99.90;;;;;;4231036;28;20119;-82
2022/09/30 06:48:46;;;;;;;6.65;4.25;;;8.30;99.90;;;;;;4213691;28;20458;-81
2022/09/30 06:50:47;;;;;;;8.65;4.22;;;8.30;99.90;;;;;;4204506;28;20051;-82
2022/09/30 06:52:47;;;;;;;9.63;3.97;;;8.40;99.90;;;;;;4247836;27;20043;-81
2022/09/30 06:54:50;;;;;;;6.93;4.15;;;8.50;99.90;;;;;;4244870;27;20535;-81
2022/09/30 06:56:52;;;;;;;6.88;4.38;;;8.60;99.90;;;;;;4226672;28;20051;-81
2022/09/30 06:58:55;;;;;;;9.18;4.28;;;8.60;99.90;;;;;;4222836;28;20047;-82
2022/09/30 07:01:00;;;;;;;9.32;4.63;;;8.70;99.90;;;;;;4241980;27;20058;-82
2022/09/30 07:03:01;;;;;;;9.18;3.95;;;8.70;99.90;;;;;;4244173;27;20076;-82
2022/09/30 07:05:02;;;;;;;9.60;4.10;;;8.70;99.90;;;;;;4247336;27;20035;-82
2022/09/30 07:07:03;;;;;;;9.55;4.25;;;8.80;99.90;;;;;;4247913;27;20039;-83
2022/09/30 07:09:05;;;;;;;6.43;3.80;;;8.80;99.90;;;;;;4233211;28;20040;-82
2022/09/30 07:11:14;;;;;;;8.30;4.10;;;8.90;99.90;;;;;;4231912;28;20043;-81
2022/09/30 07:13:16;;;;;;;6.35;3.38;;;8.90;99.90;;;;;;4231795;28;20429;-81
2022/09/30 07:15:22;;;;;;;6.03;3.58;;;9.00;99.90;;;;;;4231097;28;20130;-80
2022/09/30 07:17:22;;;;;;;4.97;3.20;;;9.10;99.90;;;;;;4230853;28;20043;-80
2022/09/30 07:19:23;;;;;;;5.75;3.33;;;9.10;99.90;;;;;;4212623;28;20070;-80
2022/09/30 07:21:24;;;;;;;6.20;3.00;;;9.10;99.90;;;;;;4230304;28;20549;-81
2022/09/30 07:23:25;;;;;;;3.78;2.65;;;9.20;99.90;;;;;;4229836;28;20118;-81
2022/09/30 07:25:26;;;;;;;6.60;2.40;;;9.30;99.90;;;;;;4230024;28;20476;-81
2022/09/30 07:27:28;;;;;;;4.75;2.83;;;9.40;99.90;;;;;;4228525;28;20136;-86
2022/09/30 07:29:30;;;;;;;5.93;2.50;;;9.50;99.90;;;;;;4226511;28;20576;-84
2022/09/30 07:31:30;;;;;;;5.25;2.80;;;9.60;99.90;;;;;;4231602;28;20043;-84
2022/09/30 07:33:32;;;;;;;4.97;2.45;;;9.70;99.90;;;;;;4250851;27;20089;-84
2022/09/30 07:35:33;;;;;;;6.78;2.63;;;9.70;99.90;;;;;;4247882;27;20454;-84
2022/09/30 07:37:34;;;;;;;4.25;2.50;;;9.80;99.90;;;;;;4215909;28;20076;-84
2022/09/30 07:39:35;;;;;;;3.88;2.80;;;9.90;99.90;;;;;;4216477;28;20036;-84
2022/09/30 07:41:39;;;;;;;9.23;2.15;;;9.30;99.90;;;;;;4236720;27;20066;-86
2022/09/30 07:43:42;;;;;;;4.47;2.08;;;11.20;99.90;;;;;;4234560;27;20052;-85
2022/09/30 07:45:44;;;;;;;3.13;1.63;;;12.10;99.90;;;;;;4235273;28;20047;-86
2022/09/30 07:47:45;;;;;;;4.18;1.67;;;13.00;99.90;;;;;;4216525;28;20048;-85
2022/09/30 07:49:46;;;;;;;2.63;1.63;;;13.70;99.90;;;;;;4216427;28;20106;-85
2022/09/30 07:51:47;;;;;;;2.67;1.60;;;14.30;99.90;;;;;;4235405;28;20372;-85
2022/09/30 07:53:50;;;;;;;1.65;1.30;;;14.80;99.90;;;;;;4234868;28;20046;-86
2022/09/30 07:55:51;;;;;;;4.00;1.30;;;15.30;99.90;;;;;;4216661;28;20039;-85
2022/09/30 07:57:52;;;;;;;2.15;1.30;;;15.70;99.90;;;;;;4216751;28;20456;-85
2022/09/30 07:59:52;;;;;;;3.83;1.65;;;16.10;99.50;;;;;;4234728;28;20039;-85
2022/09/30 08:01:53;;;;;;;2.83;1.30;;;16.30;99.10;;;;;;4216594;28;20044;-85
2022/09/30 08:03:56;;;;;;;2.53;0.98;;;16.60;98.70;;;;;;4216438;28;20044;-85
2022/09/30 08:06:03;;;;;;;2.85;1.35;;;16.90;98.50;;;;;;4216483;28;20127;-85
2022/09/30 08:08:05;;;;;;;2.33;1.10;;;17.20;98.10;;;;;;4234559;28;20058;-85
2022/09/30 08:10:07;;;;;;;2.25;1.50;;;17.60;97.80;;;;;;4216670;28;20104;-85
2022/09/30 08:12:08;;;;;;;3.85;1.33;;;17.60;96.40;;;;;;4199938;28;20111;-84
2022/09/30 08:14:18;;;;;;;3.55;1.35;;;17.90;96.90;;;;;;4234313;28;20040;-85
2022/09/30 08:16:20;;;;;;;1.67;0.98;;;17.70;96.20;;;;;;4199102;28;20036;-84
2022/09/30 08:18:21;;;;;;;3.72;0.93;;;18.30;96.30;;;;;;4233988;28;20046;-85
2022/09/30 08:20:22;;;;;;;3.22;1.10;;;18.60;95.90;;;;;;4233779;28;20044;-84
2022/09/30 08:22:23;;;;;;;1.83;1.02;;;18.80;95.50;;;;;;4249371;27;20483;-85
2022/09/30 08:24:25;;;;;;;4.90;1.70;;;18.80;95.30;;;;;;4251692;27;20133;-84
2022/09/30 08:26:25;;;;;;;1.42;1.02;;;19.20;95.00;;;;;;4250707;27;20412;-84
2022/09/30 08:28:30;;;;;;;3.75;1.00;;;19.60;94.90;;;;;;4250414;27;20119;-84
2022/09/30 08:30:33;;;;;;;2.25;1.10;;;19.60;94.00;;;;;;4251136;27;20031;-85
2022/09/30 08:32:34;;;;;;;4.57;1.15;;;19.50;93.50;;;;;;4251645;27;20067;-84
2022/09/30 08:34:36;;;;;;;2.35;1.05;;;19.70;93.20;;;;;;4250957;27;20050;-84
2022/09/30 08:36:37;;;;;;;4.63;1.35;;;19.90;92.90;;;;;;4250779;27;20054;-84
2022/09/30 08:38:38;;;;;;;1.30;1.00;;;20.10;92.70;;;;;;4251042;27;20071;-84
2022/09/30 08:40:55;;;;;;;4.97;2.03;;;20.40;92.40;;;;;;4251245;27;20093;-84
2022/09/30 08:43:17;;;;;;;2.53;1.50;;;20.60;91.10;;;;;;4249566;27;20122;-85
2022/09/30 08:45:35;;;;;;;2.13;1.20;;;20.80;90.60;;;;;;4232161;28;20051;-85
2022/09/30 08:47:46;;;;;;;3.83;1.50;;;20.80;90.40;;;;;;4241649;27;20047;-85
2022/09/30 08:50:08;;;;;;;2.05;1.35;;;20.90;90.40;;;;;;4265794;27;20039;-85
2022/09/30 08:52:32;;;;;;;4.97;1.58;;;20.90;89.90;;;;;;4231976;28;20098;-85
2022/09/30 08:54:34;;;;;;;2.28;1.30;;;21.50;89.40;;;;;;4266064;27;20053;-85
2022/09/30 08:56:36;;;;;;;3.20;1.13;;;21.70;87.90;;;;;;4268039;27;20390;-84
2022/09/30 08:58:44;;;;;;;3.15;1.45;;;21.90;86.90;;;;;;4267326;27;20050;-85
2022/09/30 09:00:47;;;;;;;3.15;1.50;;;21.90;85.00;;;;;;4266995;27;20101;-84
2022/09/30 09:02:58;;;;;;;3.17;1.70;;;21.80;87.00;;;;;;4267155;27;20043;-85
2022/09/30 09:05:04;;;;;;;1.77;1.33;;;22.00;83.50;;;;;;4267185;27;20118;-85
2022/09/30 09:07:15;;;;;;;2.53;1.13;;;22.10;83.50;;;;;;4231469;28;20047;-85
2022/09/30 09:09:25;;;;;;;4.68;1.33;;;22.30;83.30;;;;;;4266553;27;20407;-85
2022/09/30 09:11:52;;;;;;;2.38;1.30;;;22.10;80.70;;;;;;4267007;27;20095;-84
2022/09/30 09:14:01;;;;;;;1.50;1.20;;;22.10;78.90;;;;;;4266880;27;20067;-85
2022/09/30 09:16:14;;;;;;;2.30;1.10;;;22.20;81.40;;;;;;4266023;27;20054;-84
2022/09/30 09:18:39;;;;;;;2.22;1.10;;;22.30;78.00;;;;;;4269159;27;20042;-85
2022/09/30 09:20:49;;;;;;;4.47;1.55;;;22.50;76.80;;;;;;4247400;27;20507;-84
2022/09/30 09:22:51;;;;;;;3.15;1.63;;;22.70;79.90;;;;;;4216299;28;20064;-85
2022/09/30 09:24:53;;;;;;;2.40;1.30;;;22.60;79.40;;;;;;4228155;28;20047;-85
2022/09/30 09:26:56;;;;;;;4.32;1.30;;;22.40;79.30;;;;;;4233057;28;20031;-85
2022/09/30 09:29:22;;;;;;;3.50;1.33;;;22.70;79.70;;;;;;4235137;27;20040;-84
2022/09/30 09:31:25;;;;;;;1.80;1.30;;;23.00;77.10;;;;;;4249747;27;20078;-86
2022/09/30 09:33:38;;;;;;;2.50;1.40;;;23.10;78.20;;;;;;4249796;27;20491;-85
2022/09/30 09:35:57;;;;;;;3.17;1.40;;;22.80;78.40;;;;;;4250176;27;20364;-85
2022/09/30 09:38:39;;;;;;;2.10;1.30;;;22.50;78.40;;;;;;4224064;28;20511;-85
2022/09/30 09:40:56;;;;;;;2.47;1.58;;;22.20;78.00;;;;;;4214947;28;20067;-85
2022/09/30 09:43:11;;;;;;;1.85;1.30;;;22.10;79.80;;;;;;4215286;28;20054;-85
2022/09/30 09:45:29;;;;;;;2.03;1.52;;;22.20;80.80;;;;;;4232127;28;20407;-85
2022/09/30 09:47:32;;;;;;;2.03;1.20;;;22.40;79.90;;;;;;4233372;27;20088;-85
2022/09/30 09:49:37;;;;;;;2.00;1.52;;;22.10;81.00;;;;;;4249087;27;20466;-86
2022/09/30 09:51:41;;;;;;;2.13;1.40;;;21.90;81.00;;;;;;4250434;27;20154;-85
2022/09/30 09:53:53;;;;;;;1.67;1.17;;;21.40;80.50;;;;;;4249750;27;20067;-85
2022/09/30 09:55:58;;;;;;;2.13;1.52;;;21.20;82.30;;;;;;4245277;27;20543;-86
2022/09/30 09:58:05;;;;;;;2.30;1.20;;;20.80;83.30;;;;;;4249549;27;20392;-85
2022/09/30 10:02:30;;;;;;;2.53;1.25;;;20.50;83.60;;;;;;4230976;28;20052;-85
2022/09/30 10:04:32;;;;;;;1.38;0.95;;;20.30;83.90;;;;;;4248631;27;20043;-85
2022/09/30 10:06:50;;;;;;;2.50;1.40;;;20.20;85.10;;;;;;4249508;27;20082;-84
2022/09/30 10:08:55;;;;;;;2.58;1.38;;;20.00;84.10;;;;;;4249487;27;20039;-85
2022/09/30 10:11:06;;;;;;;2.60;1.40;;;20.00;84.80;;;;;;4249886;27;20119;-85
2022/09/30 10:13:25;;;;;;;1.75;1.30;;;19.90;83.20;;;;;;4248939;27;20042;-85
2022/09/30 10:15:27;;;;;;;1.20;0.80;;;19.80;83.80;;;;;;4233961;27;20048;-84
2022/09/30 10:17:34;;;;;;;2.60;1.08;;;19.80;84.80;;;;;;4232517;28;20425;-85
2022/09/30 10:19:34;;;;;;;2.13;1.30;;;19.70;83.00;;;;;;4232176;28;20050;-85
2022/09/30 10:21:36;;;;;;;1.30;1.00;;;19.70;84.60;;;;;;4232288;28;20047;-85
2022/09/30 10:23:39;;;;;;;1.15;0.90;;;19.80;84.50;;;;;;4231916;28;20051;-85
2022/09/30 10:25:54;;;;;;;4.32;1.17;;;19.90;83.50;;;;;;4213943;28;20051;-84
2022/09/30 10:28:01;;;;;;;2.08;0.73;;;20.10;84.40;;;;;;4231989;28;20051;-85
2022/09/30 10:30:03;;;;;;;1.40;0.80;;;20.40;84.10;;;;;;4232476;28;20491;-84
2022/09/30 10:32:08;;;;;;;1.20;0.90;;;20.80;83.40;;;;;;4213914;28;20055;-84
2022/09/30 10:34:28;;;;;;;1.90;0.80;;;21.00;82.20;;;;;;4231588;28;20122;-82
2022/09/30 10:36:38;;;;;;;0.93;0.93;;;21.10;80.50;;;;;;4213278;28;20040;-84
2022/09/30 10:39:04;;;;;;;1.88;0.95;;;21.20;79.50;;;;;;4230965;28;20093;-83
2022/09/30 10:41:05;;;;;;;1.60;1.00;;;20.80;76.90;;;;;;4213230;28;20048;-84
2022/09/30 10:43:21;;;;;;;1.08;0.98;;;20.90;81.20;;;;;;4203624;28;20073;-85
2022/09/30 10:45:26;;;;;;;1.08;0.98;;;20.90;80.50;;;;;;4231489;28;20050;-85
2022/09/30 10:47:28;;;;;;;3.47;1.60;;;20.90;80.90;;;;;;4231400;28;20116;-84
2022/09/30 10:49:41;;;;;;;1.80;1.20;;;20.60;80.30;;;;;;4231267;28;20047;-84
2022/09/30 10:51:44;;;;;;;1.45;1.30;;;20.40;80.00;;;;;;4230857;27;20135;-85
2022/09/30 10:53:45;;;;;;;3.05;1.27;;;20.30;80.50;;;;;;4244394;27;20104;-85
2022/09/30 10:55:46;;;;;;;1.73;1.60;;;20.40;81.60;;;;;;4229552;28;20043;-85
2022/09/30 10:57:50;;;;;;;2.42;1.98;;;20.10;80.60;;;;;;4246876;27;20039;-84
2022/09/30 11:00:00;;;;;;;2.92;1.70;;;20.50;80.50;;;;;;4229115;28;20051;-84
2022/09/30 11:02:09;;;;;;;3.72;1.80;;;20.20;78.00;;;;;;4247738;27;20051;-84
2022/09/30 11:04:33;;;;;;;2.58;1.88;;;20.70;78.90;;;;;;4248045;27;20046;-84
2022/09/30 11:06:38;;;;;;;2.95;2.10;;;20.60;79.00;;;;;;4247351;27;20489;-84